createdAt,value
2022-11-20T00:01:34.573Z,75.00
2022-11-20T00:04:09.274Z,75.10
2022-11-20T00:06:44.457Z,75.00
2022-11-20T00:09:11.818Z,74.70
2022-11-20T00:11:45.588Z,74.70
2022-11-20T00:14:19.856Z,74.80
2022-11-20T00:16:47.021Z,74.70
2022-11-20T00:19:14.377Z,74.70
2022-11-20T00:21:50.402Z,74.80
2022-11-20T00:24:18.848Z,74.60
2022-11-20T00:26:52.495Z,74.60
2022-11-20T00:29:26.513Z,74.60
2022-11-20T00:32:00.407Z,74.50
2022-11-20T00:34:41.456Z,74.20
2022-11-20T00:37:08.643Z,74.40
2022-11-20T00:39:42.624Z,74.30
2022-11-20T00:42:16.391Z,74.50
2022-11-20T00:44:52.693Z,74.60
2022-11-20T00:47:20.397Z,74.60
2022-11-20T00:49:54.542Z,74.40
2022-11-20T00:52:29.329Z,74.50
2022-11-20T00:55:00.172Z,74.40
2022-11-20T00:57:33.741Z,74.00
2022-11-20T01:00:00.827Z,73.90
2022-11-20T01:02:34.581Z,74.00
2022-11-20T01:05:09.344Z,74.40
2022-11-20T01:07:43.326Z,74.10
2022-11-20T01:10:10.811Z,74.30
2022-11-20T01:12:45.361Z,74.30
2022-11-20T01:15:12.728Z,73.90
2022-11-20T01:17:46.356Z,73.90
2022-11-20T01:20:13.641Z,74.00
2022-11-20T01:22:41.085Z,74.40
2022-11-20T01:25:15.426Z,74.50
2022-11-20T01:28:11.425Z,74.50
2022-11-20T01:30:38.607Z,74.50
2022-11-20T01:33:25.455Z,74.40
2022-11-20T01:35:52.811Z,74.00
2022-11-20T01:38:28.466Z,74.30
2022-11-20T01:40:56.876Z,74.30
2022-11-20T01:43:31.531Z,74.10
2022-11-20T01:46:18.826Z,74.10
2022-11-20T01:48:56.797Z,74.30
2022-11-20T01:51:56.032Z,74.40
2022-11-20T01:54:35.375Z,74.40
2022-11-20T01:57:03.476Z,74.50
2022-11-20T01:59:38.467Z,74.30
2022-11-20T02:02:12.348Z,74.40
2022-11-20T02:04:40.664Z,74.30
2022-11-20T02:07:15.493Z,74.40
2022-11-20T02:09:42.646Z,74.40
2022-11-20T02:12:37.452Z,74.40
2022-11-20T02:15:04.985Z,74.40
2022-11-20T02:17:40.367Z,74.30
2022-11-20T02:20:16.627Z,74.40
2022-11-20T02:23:01.563Z,74.50
2022-11-20T02:25:36.523Z,74.60
2022-11-20T02:28:10.609Z,74.50
2022-11-20T02:30:37.877Z,74.30
2022-11-20T02:33:11.367Z,74.10
2022-11-20T02:35:47.456Z,74.10
2022-11-20T02:38:22.340Z,74.10
2022-11-20T02:40:56.431Z,74.10
2022-11-20T02:43:24.352Z,74.40
2022-11-20T02:45:58.346Z,74.50
2022-11-20T02:48:34.073Z,74.50
2022-11-20T02:51:01.985Z,74.30
2022-11-20T02:53:35.622Z,74.20
2022-11-20T02:56:12.556Z,74.40
2022-11-20T02:58:39.871Z,74.50
2022-11-20T03:01:13.611Z,74.30
2022-11-20T03:03:41.677Z,74.40
2022-11-20T03:06:16.562Z,74.40
2022-11-20T03:08:44.048Z,74.40
2022-11-20T03:11:18.377Z,74.40
2022-11-20T03:13:45.759Z,74.30
2022-11-20T03:16:22.334Z,74.30
2022-11-20T03:18:50.040Z,74.30
2022-11-20T03:21:24.353Z,74.30
2022-11-20T03:23:58.538Z,74.30
2022-11-20T03:26:27.869Z,74.20
2022-11-20T03:29:04.650Z,74.40
2022-11-20T03:31:43.450Z,74.60
2022-11-20T03:34:19.766Z,74.60
2022-11-20T03:36:54.369Z,74.70
2022-11-20T03:39:21.829Z,74.60
2022-11-20T03:41:57.457Z,74.50
2022-11-20T03:44:24.881Z,74.70
2022-11-20T03:47:03.396Z,74.80
2022-11-20T03:49:30.514Z,74.60
2022-11-20T03:51:57.709Z,74.80
2022-11-20T03:54:31.417Z,75.00
2022-11-20T03:56:58.617Z,75.00
2022-11-20T03:59:32.352Z,75.00
2022-11-20T04:01:59.731Z,75.10
2022-11-20T04:04:33.382Z,75.40
2022-11-20T04:07:00.775Z,75.40
2022-11-20T04:09:34.377Z,75.60
2022-11-20T04:12:09.624Z,75.60
2022-11-20T04:14:43.413Z,75.60
2022-11-20T04:17:10.641Z,75.70
2022-11-20T04:19:44.447Z,75.70
2022-11-20T04:22:13.006Z,75.60
2022-11-20T04:24:48.551Z,75.50
2022-11-20T04:27:16.014Z,75.60
2022-11-20T04:29:49.452Z,75.70
2022-11-20T04:32:37.387Z,75.70
2022-11-20T04:35:05.410Z,75.80
2022-11-20T04:37:39.503Z,76.10
2022-11-20T04:40:07.312Z,75.90
2022-11-20T04:42:42.381Z,76.00
2022-11-20T04:45:10.071Z,76.20
2022-11-20T04:47:43.371Z,76.30
2022-11-20T04:50:11.218Z,76.30
2022-11-20T04:52:45.386Z,76.20
2022-11-20T04:55:12.441Z,76.30
2022-11-20T04:57:46.476Z,76.40
2022-11-20T05:00:14.403Z,76.40
2022-11-20T05:02:48.427Z,76.50
2022-11-20T05:05:15.730Z,76.50
2022-11-20T05:07:49.492Z,76.40
2022-11-20T05:10:16.886Z,76.30
2022-11-20T05:12:50.392Z,76.40
2022-11-20T05:15:18.218Z,76.40
2022-11-20T05:17:56.407Z,76.40
2022-11-20T05:20:24.367Z,76.40
2022-11-20T05:22:58.625Z,76.30
2022-11-20T05:25:25.976Z,76.30
2022-11-20T05:28:00.385Z,76.50
2022-11-20T05:30:27.516Z,76.40
2022-11-20T05:33:14.685Z,76.60
2022-11-20T05:35:42.192Z,76.70
2022-11-20T05:38:16.371Z,76.70
2022-11-20T05:40:50.639Z,76.60
2022-11-20T05:43:24.540Z,76.60
2022-11-20T05:46:02.632Z,76.80
2022-11-20T05:48:36.532Z,76.80
2022-11-20T05:51:06.002Z,76.80
2022-11-20T05:53:46.847Z,76.90
2022-11-20T05:56:25.381Z,76.90
2022-11-20T05:58:52.508Z,76.90
2022-11-20T06:01:27.628Z,76.90
2022-11-20T06:03:55.547Z,77.00
2022-11-20T06:06:23.416Z,76.90
2022-11-20T06:08:57.586Z,77.00
2022-11-20T06:11:24.796Z,77.20
2022-11-20T06:13:59.516Z,77.10
2022-11-20T06:16:27.073Z,77.20
2022-11-20T06:19:00.505Z,77.10
2022-11-20T06:21:27.868Z,76.90
2022-11-20T06:23:55.283Z,77.00
2022-11-20T06:26:35.547Z,77.00
2022-11-20T06:29:15.305Z,77.10
2022-11-20T06:31:43.948Z,77.00
2022-11-20T06:34:24.566Z,77.10
2022-11-20T06:37:04.449Z,77.10
2022-11-20T06:39:33.366Z,77.10
2022-11-20T06:42:00.485Z,77.20
2022-11-20T06:44:34.563Z,77.30
2022-11-20T06:47:02.260Z,77.40
2022-11-20T06:49:36.406Z,77.30
2022-11-20T06:52:04.146Z,77.40
2022-11-20T06:54:31.400Z,77.40
2022-11-20T06:57:07.556Z,77.40
2022-11-20T06:59:34.875Z,77.40
2022-11-20T07:02:08.716Z,77.40
2022-11-20T07:04:37.286Z,77.50
2022-11-20T07:07:11.547Z,77.50
2022-11-20T07:09:38.886Z,77.60
2022-11-20T07:12:07.855Z,77.60
2022-11-20T07:14:41.416Z,77.60
2022-11-20T07:17:08.597Z,77.40
2022-11-20T07:19:44.898Z,77.50
2022-11-20T07:22:14.750Z,77.40
2022-11-20T07:24:48.771Z,77.60
2022-11-20T07:27:16.350Z,77.50
2022-11-20T07:29:44.039Z,77.60
2022-11-20T07:32:17.829Z,77.90
2022-11-20T07:34:58.479Z,77.90
2022-11-20T07:37:35.009Z,77.90
2022-11-20T07:40:08.560Z,78.10
2022-11-20T07:42:36.270Z,77.90
2022-11-20T07:45:10.483Z,77.90
2022-11-20T07:47:38.414Z,77.80
2022-11-20T07:50:07.591Z,77.70
2022-11-20T07:52:41.456Z,77.90
2022-11-20T07:55:09.985Z,77.70
2022-11-20T07:57:44.577Z,77.80
2022-11-20T08:00:13.124Z,77.80
2022-11-20T08:02:50.555Z,78.00
2022-11-20T08:05:18.174Z,77.90
2022-11-20T08:07:52.360Z,77.80
2022-11-20T08:10:19.935Z,77.90
2022-11-20T08:13:17.574Z,77.90
2022-11-20T08:15:51.615Z,77.60
2022-11-20T08:18:33.114Z,77.70
2022-11-20T08:21:05.020Z,77.70
2022-11-20T08:23:39.585Z,77.90
2022-11-20T08:26:14.420Z,78.10
2022-11-20T08:28:48.559Z,78.00
2022-11-20T08:31:15.780Z,77.80
2022-11-20T08:33:56.700Z,77.80
2022-11-20T08:36:30.235Z,77.90
2022-11-20T08:39:04.654Z,78.10
2022-11-20T08:41:34.900Z,78.10
2022-11-20T08:44:11.540Z,78.00
2022-11-20T08:46:42.261Z,78.00
2022-11-20T08:49:19.110Z,77.80
2022-11-20T08:51:54.569Z,77.90
2022-11-20T08:54:24.052Z,77.80
2022-11-20T08:56:57.495Z,77.90
2022-11-20T09:02:21.073Z,78.00
2022-11-20T09:04:55.724Z,77.80
2022-11-20T09:07:23.143Z,77.90
2022-11-20T09:10:16.790Z,77.80
2022-11-20T09:12:43.716Z,77.90
2022-11-20T09:15:17.448Z,77.90
2022-11-20T09:17:57.121Z,78.00
2022-11-20T09:20:31.471Z,78.20
2022-11-20T09:23:03.202Z,78.20
2022-11-20T09:25:30.790Z,78.00
2022-11-20T09:28:05.770Z,78.00
2022-11-20T09:30:33.081Z,78.00
2022-11-20T09:33:06.717Z,78.70
2022-11-20T09:35:49.745Z,78.90
2022-11-20T09:38:16.961Z,81.30
2022-11-20T09:41:11.529Z,85.10
2022-11-20T09:43:56.219Z,83.60
2022-11-20T09:47:05.729Z,81.80
2022-11-20T09:49:36.051Z,79.00
2022-11-20T09:52:37.654Z,76.10
2022-11-20T09:55:08.740Z,74.00
2022-11-20T09:57:52.415Z,73.40
2022-11-20T10:00:22.461Z,72.60
2022-11-20T10:03:08.420Z,71.10
2022-11-20T10:05:52.464Z,68.60
2022-11-20T10:08:55.251Z,67.00
2022-11-20T10:12:10.695Z,65.60
2022-11-20T10:15:01.845Z,65.70
2022-11-20T10:17:46.397Z,67.40
2022-11-20T10:20:45.716Z,67.70
2022-11-20T10:23:51.050Z,67.90
2022-11-20T10:26:32.515Z,67.60
2022-11-20T10:29:18.319Z,67.60
2022-11-20T10:31:59.591Z,67.20
2022-11-20T10:34:58.730Z,66.40
2022-11-20T10:37:38.472Z,66.00
2022-11-20T10:40:05.920Z,65.80
2022-11-20T10:42:51.711Z,65.60
2022-11-20T10:45:35.589Z,65.40
2022-11-20T10:48:09.178Z,65.10
2022-11-20T10:50:48.840Z,64.80
2022-11-20T10:53:29.480Z,64.20
2022-11-20T10:56:14.050Z,63.70
2022-11-20T10:59:20.734Z,64.00
2022-11-20T11:01:54.534Z,64.40
2022-11-20T11:04:50.493Z,64.70
2022-11-20T11:07:21.400Z,65.20
2022-11-20T11:10:01.369Z,65.60
2022-11-20T11:12:30.353Z,66.00
2022-11-20T11:15:05.682Z,66.30
2022-11-20T11:17:35.530Z,66.40
2022-11-20T11:20:28.478Z,65.70
2022-11-20T11:23:07.619Z,66.30
2022-11-20T11:25:37.253Z,66.20
2022-11-20T11:28:24.930Z,66.50
2022-11-20T11:30:52.639Z,67.00
2022-11-20T11:33:29.525Z,67.40
2022-11-20T11:36:26.746Z,68.00
2022-11-20T11:38:55.445Z,68.60
2022-11-20T11:41:36.772Z,69.00
2022-11-20T11:45:00.654Z,69.30
2022-11-20T11:47:33.175Z,69.90
2022-11-20T11:50:32.669Z,70.20
2022-11-20T11:53:22.635Z,70.80
2022-11-20T11:56:05.204Z,71.10
2022-11-20T11:59:07.188Z,71.40
2022-11-20T12:01:54.185Z,71.70
2022-11-20T12:04:58.825Z,71.90
2022-11-20T12:07:47.093Z,72.20
2022-11-20T12:10:24.645Z,72.50
2022-11-20T12:13:05.727Z,72.70
2022-11-20T12:15:42.649Z,73.00
2022-11-20T12:18:17.609Z,73.20
2022-11-20T12:21:04.708Z,73.40
2022-11-20T12:23:40.803Z,73.70
2022-11-20T12:26:31.514Z,73.80
2022-11-20T12:29:02.050Z,73.90
2022-11-20T12:32:01.532Z,74.10
2022-11-20T12:34:50.675Z,74.30
2022-11-20T12:37:52.635Z,74.60
2022-11-20T12:41:08.035Z,74.80
2022-11-20T12:44:37.645Z,74.90
2022-11-20T12:47:14.603Z,74.90
2022-11-20T12:50:06.123Z,75.20
2022-11-20T12:53:04.646Z,75.40
2022-11-20T12:55:44.315Z,75.70
2022-11-20T12:58:40.145Z,75.80
2022-11-20T13:01:58.526Z,75.90
2022-11-20T13:04:37.871Z,76.00
2022-11-20T13:07:15.722Z,76.20
2022-11-20T13:09:56.557Z,76.20
2022-11-20T13:13:03.562Z,76.40
2022-11-20T13:15:50.140Z,76.70
2022-11-20T13:18:25.465Z,76.90
2022-11-20T13:20:53.015Z,77.00
2022-11-20T13:23:35.800Z,77.10
2022-11-20T13:26:16.606Z,77.00
2022-11-20T13:28:51.225Z,77.30
2022-11-20T13:31:46.335Z,77.30
2022-11-20T13:34:30.675Z,77.40
2022-11-20T13:37:07.005Z,77.40
2022-11-20T13:39:45.855Z,77.50
2022-11-20T13:42:16.651Z,77.60
2022-11-20T13:44:55.634Z,77.70
2022-11-20T13:47:29.380Z,77.80
2022-11-20T13:50:05.646Z,78.00
2022-11-20T13:53:00.925Z,78.20
2022-11-20T13:56:13.554Z,78.20
2022-11-20T13:59:18.507Z,78.30
2022-11-20T14:01:47.778Z,78.40
2022-11-20T14:04:34.538Z,78.60
2022-11-20T14:07:08.580Z,78.70
2022-11-20T14:09:43.445Z,78.70
2022-11-20T14:12:26.616Z,78.90
2022-11-20T14:15:02.673Z,78.90
2022-11-20T14:17:38.015Z,79.00
2022-11-20T14:20:22.614Z,78.90
2022-11-20T14:23:03.912Z,79.10
2022-11-20T14:25:32.332Z,79.10
2022-11-20T14:28:08.651Z,79.30
2022-11-20T14:30:47.920Z,79.30
2022-11-20T14:33:23.590Z,79.40
2022-11-20T14:36:08.160Z,79.60
2022-11-20T14:38:43.039Z,79.60
2022-11-20T14:41:24.244Z,79.80
2022-11-20T14:44:08.570Z,80.00
2022-11-20T14:46:36.150Z,80.10
2022-11-20T14:49:06.500Z,80.20
2022-11-20T14:51:49.701Z,80.30
2022-11-20T14:54:26.589Z,80.20
2022-11-20T14:57:13.051Z,80.20
2022-11-20T14:59:46.781Z,80.30
2022-11-20T15:02:21.605Z,80.30
2022-11-20T15:04:58.419Z,80.40
2022-11-20T15:07:36.808Z,80.40
2022-11-20T15:10:17.600Z,80.40
2022-11-20T15:12:51.671Z,80.50
2022-11-20T15:15:31.810Z,80.40
2022-11-20T15:17:59.991Z,80.40
2022-11-20T15:20:30.950Z,80.50
2022-11-20T15:23:05.783Z,81.30
2022-11-20T15:25:42.390Z,81.40
2022-11-20T15:28:24.670Z,81.10
2022-11-20T15:31:00.652Z,80.90
2022-11-20T15:33:28.000Z,80.90
2022-11-20T15:36:15.699Z,80.80
2022-11-20T15:38:43.000Z,80.80
2022-11-20T15:41:16.457Z,80.80
2022-11-20T15:43:43.754Z,80.90
2022-11-20T15:46:20.625Z,80.90
2022-11-20T15:49:09.690Z,81.00
2022-11-20T15:51:40.211Z,81.10
2022-11-20T15:54:23.970Z,81.20
2022-11-20T15:56:55.017Z,81.20
2022-11-20T15:59:29.665Z,81.20
2022-11-20T16:01:57.283Z,81.30
2022-11-20T16:04:24.826Z,81.40
2022-11-20T16:06:58.587Z,81.40
2022-11-20T16:09:32.544Z,81.50
2022-11-20T16:12:03.031Z,81.50
2022-11-20T16:14:55.489Z,81.60
2022-11-20T16:17:49.670Z,81.60
2022-11-20T16:20:26.171Z,81.50
2022-11-20T16:22:54.889Z,81.50
2022-11-20T16:25:28.669Z,81.50
2022-11-20T16:27:56.310Z,81.50
2022-11-20T16:30:30.489Z,81.50
2022-11-20T16:32:57.849Z,81.70
2022-11-20T16:35:39.595Z,81.60
2022-11-20T16:38:13.789Z,81.60
2022-11-20T16:40:47.635Z,81.80
2022-11-20T16:43:15.911Z,81.70
2022-11-20T16:45:52.751Z,81.60
2022-11-20T16:48:20.230Z,81.80
2022-11-20T16:50:59.609Z,81.90
2022-11-20T16:53:26.890Z,81.90
2022-11-20T16:56:01.250Z,81.90
2022-11-20T16:58:34.669Z,81.90
2022-11-20T17:01:14.286Z,81.90
2022-11-20T17:03:49.689Z,81.80
2022-11-20T17:06:28.609Z,81.90
2022-11-20T17:08:57.509Z,81.80
2022-11-20T17:11:32.755Z,81.50
2022-11-20T17:14:07.971Z,81.50
2022-11-20T17:16:43.770Z,81.90
2022-11-20T17:19:11.110Z,82.20
2022-11-20T17:21:39.809Z,82.30
2022-11-20T17:24:20.129Z,82.60
2022-11-20T17:26:56.570Z,82.70
2022-11-20T17:29:24.649Z,82.70
2022-11-20T17:32:02.800Z,82.60
2022-11-20T17:34:36.689Z,82.60
2022-11-20T17:37:16.720Z,82.60
2022-11-20T17:39:45.303Z,82.70
2022-11-20T17:42:34.930Z,82.80
2022-11-20T17:45:02.530Z,82.70
2022-11-20T17:47:37.230Z,82.70
2022-11-20T17:50:05.809Z,82.70
2022-11-20T17:52:33.390Z,82.60
2022-11-20T17:55:08.569Z,82.50
2022-11-20T17:58:00.598Z,82.40
2022-11-20T18:00:29.265Z,82.40
2022-11-20T18:03:03.529Z,82.30
2022-11-20T18:05:30.889Z,82.30
2022-11-20T18:07:58.399Z,82.20
2022-11-20T18:10:32.675Z,82.10
2022-11-20T18:13:00.115Z,81.90
2022-11-20T18:15:33.670Z,81.80
2022-11-20T18:18:00.965Z,81.70
2022-11-20T18:20:39.663Z,81.50
2022-11-20T18:23:13.670Z,81.40
2022-11-20T18:25:48.973Z,81.40
2022-11-20T18:28:24.795Z,81.30
2022-11-20T18:30:52.380Z,81.10
2022-11-20T18:33:28.540Z,81.00
2022-11-20T18:36:03.760Z,81.00
2022-11-20T18:38:43.584Z,80.90
2022-11-20T18:41:31.220Z,80.50
2022-11-20T18:44:25.152Z,80.40
2022-11-20T18:46:52.965Z,80.30
2022-11-20T18:49:26.595Z,80.30
2022-11-20T18:52:00.590Z,80.20
2022-11-20T18:54:28.109Z,80.10
2022-11-20T18:57:02.641Z,79.90
2022-11-20T18:59:30.384Z,79.80
2022-11-20T19:02:06.009Z,79.70
2022-11-20T19:04:38.579Z,79.50
2022-11-20T19:07:12.598Z,79.40
2022-11-20T19:09:49.685Z,79.30
2022-11-20T19:12:24.685Z,79.20
2022-11-20T19:14:52.239Z,79.10
2022-11-20T19:17:25.635Z,79.00
2022-11-20T19:20:01.712Z,78.90
2022-11-20T19:22:29.265Z,78.70
2022-11-20T19:25:03.885Z,78.60
2022-11-20T19:27:31.230Z,78.50
2022-11-20T19:30:10.202Z,78.50
2022-11-20T19:32:45.895Z,78.50
2022-11-20T19:35:26.685Z,78.40
2022-11-20T19:38:06.643Z,78.40
2022-11-20T19:40:40.559Z,78.30
2022-11-20T19:43:14.680Z,78.30
2022-11-20T19:45:42.129Z,78.20
2022-11-20T19:48:16.726Z,78.10
2022-11-20T19:50:44.009Z,78.10
2022-11-20T19:53:18.630Z,78.00
2022-11-20T19:55:56.841Z,77.80
2022-11-20T19:58:32.768Z,77.80
2022-11-20T20:01:18.922Z,77.70
2022-11-20T20:03:54.765Z,77.60
2022-11-20T20:06:30.712Z,77.50
2022-11-20T20:09:10.793Z,77.40
2022-11-20T20:11:40.270Z,77.30
2022-11-20T20:14:20.905Z,77.30
2022-11-20T20:16:51.598Z,77.40
2022-11-20T20:19:26.256Z,77.40
2022-11-20T20:22:03.531Z,77.30
2022-11-20T20:24:37.220Z,77.10
2022-11-20T20:27:12.685Z,77.00
2022-11-20T20:29:47.119Z,77.00
2022-11-20T20:32:14.649Z,76.90
2022-11-20T20:34:55.681Z,77.00
2022-11-20T20:37:29.520Z,76.90
2022-11-20T20:40:04.045Z,76.70
2022-11-20T20:42:39.579Z,76.50
2022-11-20T20:45:07.684Z,76.50
2022-11-20T20:47:44.735Z,76.60
2022-11-20T20:50:13.450Z,76.60
2022-11-20T20:52:47.634Z,76.60
2022-11-20T20:55:15.957Z,76.40
2022-11-20T20:57:49.724Z,76.40
2022-11-20T21:00:20.164Z,76.40
2022-11-20T21:02:53.654Z,76.40
2022-11-20T21:05:20.993Z,76.30
2022-11-20T21:08:13.646Z,76.20
2022-11-20T21:10:41.110Z,76.10
2022-11-20T21:13:09.617Z,76.00
2022-11-20T21:15:47.000Z,76.00
2022-11-20T21:18:22.041Z,75.90
2022-11-20T21:21:08.971Z,75.90
2022-11-20T21:23:44.719Z,75.60
2022-11-20T21:26:12.720Z,75.50
2022-11-20T21:28:40.110Z,75.40
2022-11-20T21:31:22.765Z,75.40
2022-11-20T21:33:51.874Z,75.50
2022-11-20T21:36:33.086Z,75.60
2022-11-20T21:39:00.852Z,75.70
2022-11-20T21:41:37.879Z,75.60
2022-11-20T21:44:30.150Z,75.70
2022-11-20T21:47:01.680Z,75.60
2022-11-20T21:49:29.317Z,75.50
2022-11-20T21:52:03.653Z,75.50
2022-11-20T21:54:40.932Z,75.50
2022-11-20T21:57:32.125Z,75.20
2022-11-20T22:00:00.894Z,75.20
2022-11-20T22:02:45.964Z,75.30
2022-11-20T22:05:22.319Z,75.30
2022-11-20T22:08:04.065Z,75.30
2022-11-20T22:10:40.510Z,75.40
2022-11-20T22:13:48.631Z,75.30
2022-11-20T22:16:37.248Z,75.20
2022-11-20T22:19:12.773Z,75.30
2022-11-20T22:21:45.709Z,75.10
2022-11-20T22:24:23.197Z,75.10
2022-11-20T22:26:57.640Z,75.20
2022-11-20T22:29:24.879Z,75.30
2022-11-20T22:31:59.871Z,75.30
2022-11-20T22:34:27.188Z,75.40
2022-11-20T22:37:07.717Z,75.50
2022-11-20T22:39:43.700Z,75.60
2022-11-20T22:42:18.583Z,75.90
2022-11-20T22:44:45.716Z,75.80
2022-11-20T22:47:19.525Z,75.70
2022-11-20T22:49:46.681Z,75.90
2022-11-20T22:52:13.937Z,75.80
2022-11-20T22:54:47.659Z,75.60
2022-11-20T22:57:14.897Z,75.60
2022-11-20T22:59:48.910Z,75.80
2022-11-20T23:02:16.509Z,76.00
2022-11-20T23:04:50.588Z,76.20
2022-11-20T23:07:24.791Z,76.20
2022-11-20T23:09:58.737Z,76.30
2022-11-20T23:12:32.600Z,76.50
2022-11-20T23:14:59.908Z,76.60
2022-11-20T23:17:33.840Z,76.90
2022-11-20T23:20:01.048Z,76.90
2022-11-20T23:22:34.861Z,76.60
2022-11-20T23:25:08.659Z,76.70
2022-11-20T23:27:42.711Z,76.80
2022-11-20T23:30:10.821Z,76.70
2022-11-20T23:32:44.862Z,76.70
2022-11-20T23:35:31.674Z,76.60
2022-11-20T23:38:11.747Z,76.90
2022-11-20T23:40:45.698Z,77.00
2022-11-20T23:43:15.847Z,76.90
2022-11-20T23:45:54.598Z,76.90
2022-11-20T23:48:23.786Z,76.90
2022-11-20T23:50:57.693Z,76.90
2022-11-20T23:53:25.608Z,77.00
2022-11-20T23:56:04.639Z,77.30
2022-11-20T23:58:38.184Z,77.50
